createdAt,value
2022-08-17T01:41:53.577Z,16.44
2022-08-17T01:45:32.737Z,16.53
2022-08-17T01:48:28.087Z,16.31
2022-08-17T01:51:22.796Z,16.39
2022-08-17T01:54:19.828Z,16.47
2022-08-17T01:57:15.509Z,16.57
2022-08-17T02:00:11.721Z,16.62
2022-08-17T02:03:16.490Z,16.58
2022-08-17T02:06:27.094Z,16.57
2022-08-17T02:09:23.326Z,16.50
2022-08-17T02:12:43.378Z,16.55
2022-08-17T02:15:37.906Z,16.53
2022-08-17T02:22:26.473Z,16.61
2022-08-17T02:25:23.871Z,16.42
2022-08-17T02:28:19.070Z,16.67
2022-08-17T02:31:18.312Z,16.60
2022-08-17T02:34:14.659Z,16.49
2022-08-17T02:37:09.069Z,16.69
2022-08-17T02:40:04.929Z,16.60
2022-08-17T02:43:00.351Z,16.60
2022-08-17T02:46:22.407Z,16.50
2022-08-17T02:49:17.424Z,16.61
2022-08-17T02:52:18.810Z,16.51
2022-08-17T02:55:52.969Z,16.78
2022-08-17T02:58:48.606Z,16.66
2022-08-17T03:01:50.559Z,16.67
2022-08-17T03:04:45.433Z,16.78
2022-08-17T03:07:39.941Z,16.77
2022-08-17T03:10:40.232Z,16.96
2022-08-17T03:20:16.743Z,16.82
2022-08-17T03:23:12.059Z,17.06
2022-08-17T03:26:12.377Z,17.17
2022-08-17T03:29:10.252Z,17.10
2022-08-17T03:39:12.175Z,17.59
2022-08-17T03:42:31.194Z,17.67
2022-08-17T03:45:43.197Z,17.82
2022-08-17T03:48:51.927Z,17.79
2022-08-17T04:01:38.937Z,18.04
2022-08-17T04:04:36.927Z,17.90
2022-08-17T04:07:31.937Z,17.83
2022-08-17T04:13:33.140Z,18.11
2022-08-17T04:19:30.213Z,18.17
2022-08-17T04:22:32.375Z,18.25
2022-08-17T04:25:32.494Z,18.42
2022-08-17T04:28:27.595Z,18.67
2022-08-17T04:31:24.479Z,18.81
2022-08-17T04:34:42.049Z,18.95
2022-08-17T04:37:24.172Z,19.04
2022-08-17T04:40:18.158Z,18.99
2022-08-17T06:14:07.141Z,21.93
2022-08-17T06:30:20.505Z,22.57
2022-08-17T07:31:52.114Z,24.11
2022-08-17T07:35:11.514Z,24.27
2022-08-17T07:37:48.962Z,24.20
2022-08-17T07:40:32.095Z,24.45
2022-08-17T07:43:22.340Z,24.54
2022-08-17T07:46:14.258Z,24.61
2022-08-17T07:49:20.228Z,24.66
2022-08-17T07:52:51.217Z,24.72
2022-08-17T08:01:25.686Z,25.03
2022-08-17T08:08:12.199Z,25.40
2022-08-17T08:11:12.907Z,25.75
2022-08-17T08:19:29.355Z,26.24
2022-08-17T08:22:11.605Z,26.75
2022-08-17T08:25:07.252Z,27.10
2022-08-17T11:21:49.903Z,44.96
2022-08-17T11:28:06.313Z,42.46
2022-08-17T11:31:17.335Z,43.73
2022-08-17T11:37:18.111Z,45.64
2022-08-17T11:40:09.050Z,45.83
2022-08-17T11:42:54.032Z,46.76
2022-08-17T14:08:37.292Z,34.97
2022-08-17T14:35:15.361Z,32.12
2022-08-17T14:45:30.421Z,32.25
2022-08-17T14:51:32.215Z,31.88
2022-08-17T14:54:05.825Z,31.35
2022-08-17T15:02:14.057Z,30.35
2022-08-17T17:08:43.650Z,22.56
2022-08-17T17:11:35.619Z,22.71
2022-08-17T17:14:07.649Z,22.53
2022-08-17T17:17:01.372Z,22.61
2022-08-17T17:20:00.950Z,22.41
2022-08-17T17:22:56.190Z,22.26
2022-08-17T22:17:47.190Z,18.39
2022-08-17T22:37:35.785Z,18.01
